createdAt,value
2023-04-02T00:03:59.344Z,8.21
2023-04-02T00:09:17.609Z,8.20
2023-04-02T00:14:27.017Z,8.25
2023-04-02T00:19:31.876Z,8.18
2023-04-02T00:24:33.745Z,8.12
2023-04-02T00:29:35.030Z,8.18
2023-04-02T00:34:37.275Z,8.15
2023-04-02T00:39:41.498Z,8.19
2023-04-02T00:44:44.005Z,8.10
2023-04-02T00:49:45.469Z,8.04
2023-04-02T00:54:51.877Z,8.00
2023-04-02T00:59:53.197Z,7.92
2023-04-02T01:05:02.338Z,7.89
2023-04-02T01:10:15.617Z,7.91
2023-04-02T01:15:24.222Z,7.88
2023-04-02T01:20:37.411Z,7.89
2023-04-02T01:25:38.713Z,7.90
2023-04-02T01:30:42.212Z,7.86
2023-04-02T01:35:46.396Z,7.84
2023-04-02T01:41:07.981Z,7.78
2023-04-02T01:46:26.822Z,7.76
2023-04-02T01:51:35.971Z,7.77
2023-04-02T01:56:37.687Z,7.72
2023-04-02T02:01:49.132Z,7.78
2023-04-02T02:06:50.802Z,7.83
2023-04-02T02:11:52.337Z,7.87
2023-04-02T02:16:56.593Z,7.89
2023-04-02T02:22:02.215Z,7.82
2023-04-02T02:27:38.490Z,7.85
2023-04-02T02:32:42.756Z,7.84
2023-04-02T02:37:46.430Z,7.87
2023-04-02T02:42:51.125Z,7.84
2023-04-02T02:47:53.731Z,7.84
2023-04-02T02:52:57.154Z,7.85
2023-04-02T02:58:03.399Z,7.91
2023-04-02T03:03:10.673Z,7.96
2023-04-02T03:08:15.489Z,8.01
2023-04-02T03:13:28.733Z,7.96
2023-04-02T03:18:37.863Z,7.98
2023-04-02T03:23:42.522Z,8.00
2023-04-02T03:28:46.538Z,8.06
2023-04-02T03:33:51.097Z,8.03
2023-04-02T03:38:55.601Z,8.07
2023-04-02T03:43:59.138Z,8.06
2023-04-02T03:49:03.448Z,8.03
2023-04-02T03:54:05.255Z,8.02
2023-04-02T03:59:27.221Z,8.03
2023-04-02T04:04:31.613Z,8.00
2023-04-02T04:09:35.351Z,7.95
2023-04-02T04:14:37.747Z,7.95
2023-04-02T04:20:00.007Z,8.00
2023-04-02T04:25:18.181Z,8.03
2023-04-02T04:30:27.178Z,8.03
2023-04-02T04:35:37.523Z,8.06
2023-04-02T04:40:44.847Z,8.06
2023-04-02T04:45:51.711Z,8.06
2023-04-02T04:50:56.014Z,8.03
2023-04-02T04:56:15.925Z,8.07
2023-04-02T05:01:29.435Z,8.08
2023-04-02T05:06:39.970Z,8.10
2023-04-02T05:11:51.853Z,8.10
2023-04-02T05:16:58.651Z,8.11
2023-04-02T05:22:14.988Z,8.14
2023-04-02T05:27:19.496Z,8.19
2023-04-02T05:32:27.651Z,8.22
2023-04-02T05:37:30.397Z,8.24
2023-04-02T05:42:34.322Z,8.26
2023-04-02T05:47:40.923Z,8.36
2023-04-02T05:52:46.124Z,8.24
2023-04-02T05:58:07.020Z,8.29
2023-04-02T06:03:27.371Z,8.24
2023-04-02T06:08:41.600Z,8.29
2023-04-02T06:13:42.933Z,8.33
2023-04-02T06:18:44.596Z,8.39
2023-04-02T06:23:49.934Z,8.46
2023-04-02T06:29:07.111Z,8.35
2023-04-02T06:34:14.755Z,8.26
2023-04-02T06:39:20.393Z,8.24
2023-04-02T06:44:24.354Z,8.09
2023-04-02T06:49:29.210Z,7.94
2023-04-02T06:54:31.180Z,7.89
2023-04-02T06:59:32.608Z,7.79
2023-04-02T07:04:34.140Z,7.73
2023-04-02T07:09:35.451Z,7.64
2023-04-02T07:14:36.789Z,7.63
2023-04-02T07:19:38.175Z,7.51
2023-04-02T07:24:39.563Z,7.29
2023-04-02T07:29:42.905Z,7.44
2023-04-02T07:34:44.258Z,7.32
2023-04-02T07:39:45.563Z,7.43
2023-04-02T07:44:46.878Z,7.30
2023-04-02T07:49:48.183Z,7.28
2023-04-02T07:54:49.523Z,7.21
2023-04-02T07:59:51.491Z,7.13
2023-04-02T08:04:52.838Z,7.08
2023-04-02T08:09:54.153Z,6.98
2023-04-02T08:14:55.726Z,6.92
2023-04-02T08:20:00.958Z,6.91
2023-04-02T08:25:02.299Z,6.97
2023-04-02T08:30:03.794Z,6.94
2023-04-02T08:35:05.314Z,6.92
2023-04-02T08:40:07.913Z,6.80
2023-04-02T08:45:25.360Z,6.83
2023-04-02T08:50:34.576Z,6.87
2023-04-02T08:55:47.798Z,6.90
2023-04-02T09:00:52.019Z,6.83
2023-04-02T09:05:53.685Z,6.87
2023-04-02T09:11:01.958Z,6.84
2023-04-02T09:16:09.705Z,7.00
2023-04-02T09:21:21.124Z,7.09
2023-04-02T09:26:23.811Z,7.31
2023-04-02T09:31:30.615Z,7.32
2023-04-02T09:36:36.317Z,7.33
2023-04-02T09:41:38.515Z,7.16
2023-04-02T09:47:00.159Z,7.07
2023-04-02T09:52:15.279Z,7.12
2023-04-02T09:57:23.985Z,7.25
2023-04-02T10:02:28.442Z,7.30
2023-04-02T10:07:34.540Z,7.28
2023-04-02T10:12:41.005Z,7.21
2023-04-02T10:17:43.464Z,7.34
2023-04-02T10:22:45.295Z,7.34
2023-04-02T10:27:56.511Z,7.34
2023-04-02T10:33:03.356Z,7.33
2023-04-02T10:38:26.312Z,7.29
2023-04-02T10:43:30.838Z,7.35
2023-04-02T10:48:34.900Z,7.36
2023-04-02T10:53:39.651Z,7.48
2023-04-02T10:59:02.777Z,7.30
2023-04-02T11:04:14.340Z,7.48
2023-04-02T11:09:18.268Z,7.50
2023-04-02T11:14:22.711Z,7.62
2023-04-02T11:19:30.343Z,7.62
2023-04-02T11:24:32.844Z,7.76
2023-04-02T11:29:36.403Z,7.77
2023-04-02T11:34:40.814Z,7.82
2023-04-02T11:39:53.381Z,7.85
2023-04-02T11:44:55.491Z,8.16
2023-04-02T11:49:58.316Z,8.29
2023-04-02T11:55:01.659Z,8.36
2023-04-02T12:00:04.967Z,8.35
2023-04-02T12:05:32.039Z,8.03
2023-04-02T12:10:52.008Z,8.17
2023-04-02T12:15:57.519Z,8.24
2023-04-02T12:20:58.833Z,8.39
2023-04-02T12:26:00.116Z,8.64
2023-04-02T12:31:03.509Z,8.71
2023-04-02T12:36:17.923Z,8.56
2023-04-02T12:41:23.992Z,8.68
2023-04-02T12:46:26.662Z,8.58
2023-04-02T12:51:28.475Z,8.37
2023-04-02T12:56:29.857Z,8.19
2023-04-02T13:01:31.997Z,8.39
2023-04-02T13:06:36.914Z,8.24
2023-04-02T13:11:41.846Z,8.14
2023-04-02T13:16:43.300Z,8.02
2023-04-02T13:21:45.279Z,8.03
2023-04-02T13:26:49.076Z,8.05
2023-04-02T13:31:51.384Z,7.99
2023-04-02T13:36:52.856Z,8.03
2023-04-02T13:41:58.284Z,8.22
2023-04-02T13:47:00.034Z,8.38
2023-04-02T13:52:05.527Z,8.41
2023-04-02T13:57:07.449Z,8.49
2023-04-02T14:02:10.627Z,8.46
2023-04-02T14:07:28.048Z,8.67
2023-04-02T14:12:48.624Z,8.43
2023-04-02T14:18:01.932Z,8.58
2023-04-02T14:23:03.546Z,8.39
2023-04-02T14:28:23.600Z,8.78
2023-04-02T14:33:43.538Z,8.57
2023-04-02T14:38:55.713Z,8.84
2023-04-02T14:44:02.081Z,8.85
2023-04-02T14:49:06.168Z,8.70
2023-04-02T14:54:26.412Z,8.21
2023-04-02T14:59:34.088Z,8.34
2023-04-02T15:04:42.664Z,8.51
2023-04-02T15:09:47.457Z,8.68
2023-04-02T15:14:51.171Z,8.79
2023-04-02T15:19:58.643Z,8.75
2023-04-02T15:25:03.820Z,8.67
2023-04-02T15:30:13.074Z,8.26
2023-04-02T15:35:33.810Z,8.26
2023-04-02T15:40:35.279Z,8.25
2023-04-02T15:45:48.729Z,8.21
2023-04-02T15:50:54.328Z,8.19
2023-04-02T15:56:03.829Z,8.23
2023-04-02T16:01:14.567Z,8.16
2023-04-02T16:06:25.317Z,8.13
2023-04-02T16:11:27.299Z,8.04
2023-04-02T16:16:32.795Z,8.01
2023-04-02T16:21:43.220Z,7.78
2023-04-02T16:26:59.560Z,7.57
2023-04-02T16:32:04.005Z,7.54
2023-04-02T16:37:24.049Z,7.52
2023-04-02T16:42:31.637Z,7.23
2023-04-02T16:47:59.493Z,7.18
2023-04-02T16:53:06.753Z,7.15
2023-04-02T16:58:27.164Z,7.10
2023-04-02T17:03:47.469Z,6.83
2023-04-02T17:08:53.976Z,6.74
2023-04-02T17:14:20.356Z,6.56
2023-04-02T17:19:24.549Z,6.35
2023-04-02T17:24:29.836Z,6.14
2023-04-02T17:29:34.483Z,6.14
2023-04-02T17:34:36.143Z,6.09
2023-04-02T17:39:51.301Z,5.95
2023-04-02T17:44:58.676Z,5.84
2023-04-02T17:50:12.342Z,5.79
2023-04-02T17:55:32.233Z,5.57
2023-04-02T18:00:46.046Z,5.66
2023-04-02T18:06:06.722Z,5.52
2023-04-02T18:11:08.945Z,5.52
2023-04-02T18:16:10.394Z,5.34
2023-04-02T18:21:21.431Z,5.31
2023-04-02T18:26:41.580Z,5.28
2023-04-02T18:31:49.140Z,5.30
2023-04-02T18:37:09.422Z,5.31
2023-04-02T18:42:29.156Z,5.28
2023-04-02T18:47:38.358Z,5.34
2023-04-02T18:52:41.125Z,5.27
2023-04-02T18:57:44.994Z,5.32
2023-04-02T19:02:49.102Z,5.39
2023-04-02T19:07:54.186Z,5.25
2023-04-02T19:12:55.520Z,5.29
2023-04-02T19:18:07.887Z,5.33
2023-04-02T19:23:19.206Z,5.31
2023-04-02T19:28:43.569Z,5.32
2023-04-02T19:33:50.364Z,5.39
2023-04-02T19:38:54.405Z,5.36
2023-04-02T19:43:56.188Z,5.33
2023-04-02T19:49:03.573Z,5.41
2023-04-02T19:54:04.942Z,5.36
2023-04-02T19:59:17.150Z,5.34
2023-04-02T20:04:19.156Z,5.31
2023-04-02T20:09:21.762Z,5.37
2023-04-02T20:14:23.067Z,5.37
2023-04-02T20:19:24.510Z,5.48
2023-04-02T20:24:25.902Z,5.47
2023-04-02T20:29:29.376Z,5.41
2023-04-02T20:34:30.824Z,5.43
2023-04-02T20:39:32.673Z,5.41
2023-04-02T20:44:34.233Z,5.41
2023-04-02T20:49:35.606Z,5.45
2023-04-02T20:54:36.944Z,5.38
2023-04-02T20:59:38.236Z,5.39
2023-04-02T21:04:39.623Z,5.32
2023-04-02T21:09:41.074Z,5.25
2023-04-02T21:14:42.371Z,5.28
2023-04-02T21:19:43.672Z,5.28
2023-04-02T21:24:44.975Z,5.26
2023-04-02T21:29:46.283Z,5.24
2023-04-02T21:34:47.648Z,5.20
2023-04-02T21:39:49.044Z,5.16
2023-04-02T21:44:50.934Z,5.18
2023-04-02T21:49:52.272Z,5.17
2023-04-02T21:54:53.586Z,5.14
2023-04-02T21:59:56.905Z,5.07
2023-04-02T22:04:58.248Z,5.02
2023-04-02T22:09:59.565Z,5.03
2023-04-02T22:15:00.870Z,4.97
2023-04-02T22:20:02.174Z,5.00
2023-04-02T22:25:03.811Z,4.82
2023-04-02T22:30:05.719Z,4.53
2023-04-02T22:35:07.147Z,4.34
2023-04-02T22:40:08.710Z,4.34
2023-04-02T22:45:10.222Z,4.37
2023-04-02T22:50:11.613Z,4.38
2023-04-02T22:55:16.764Z,4.33
2023-04-02T23:00:18.766Z,4.28
2023-04-02T23:05:20.879Z,4.23
2023-04-02T23:10:22.224Z,4.16
2023-04-02T23:15:23.554Z,4.13
2023-04-02T23:20:24.909Z,4.13
2023-04-02T23:25:26.379Z,4.23
2023-04-02T23:30:27.699Z,4.15
2023-04-02T23:35:29.094Z,4.08
2023-04-02T23:40:30.468Z,4.31
2023-04-02T23:45:31.848Z,4.16
2023-04-02T23:50:33.155Z,4.13
2023-04-02T23:55:34.470Z,4.06
